sensor_id;sensor_type;location;lat;lon;timestamp;P1;durP1;ratioP1;P2;durP2;ratioP2
49784;SDS011;35679;38.732;-121.358;2023-08-17T00:00:04;3.15;;;2.70;;
49784;SDS011;35679;38.732;-121.358;2023-08-17T00:02:57;2.92;;;2.63;;
49784;SDS011;35679;38.732;-121.358;2023-08-17T00:05:48;2.63;;;2.53;;
49784;SDS011;35679;38.732;-121.358;2023-08-17T00:08:37;3.10;;;2.70;;
49784;SDS011;35679;38.732;-121.358;2023-08-17T00:11:27;3.13;;;2.92;;
49784;SDS011;35679;38.732;-121.358;2023-08-17T00:14:16;2.58;;;2.47;;
49784;SDS011;35679;38.732;-121.358;2023-08-17T00:17:06;3.22;;;3.03;;
49784;SDS011;35679;38.732;-121.358;2023-08-17T00:19:55;3.13;;;2.92;;
49784;SDS011;35679;38.732;-121.358;2023-08-17T00:22:45;2.67;;;2.58;;
49784;SDS011;35679;38.732;-121.358;2023-08-17T00:25:34;19.08;;;4.40;;
49784;SDS011;35679;38.732;-121.358;2023-08-17T00:28:24;17.38;;;4.57;;
49784;SDS011;35679;38.732;-121.358;2023-08-17T00:31:13;10.05;;;3.92;;
49784;SDS011;35679;38.732;-121.358;2023-08-17T00:34:03;10.23;;;4.53;;
49784;SDS011;35679;38.732;-121.358;2023-08-17T00:36:52;14.50;;;4.90;;
49784;SDS011;35679;38.732;-121.358;2023-08-17T00:39:43;7.82;;;4.28;;
49784;SDS011;35679;38.732;-121.358;2023-08-17T00:42:32;22.40;;;5.60;;
49784;SDS011;35679;38.732;-121.358;2023-08-17T00:45:22;12.27;;;5.97;;
49784;SDS011;35679;38.732;-121.358;2023-08-17T00:48:12;10.15;;;5.53;;
49784;SDS011;35679;38.732;-121.358;2023-08-17T00:51:03;10.45;;;5.22;;
49784;SDS011;35679;38.732;-121.358;2023-08-17T00:53:54;10.87;;;4.97;;
49784;SDS011;35679;38.732;-121.358;2023-08-17T00:56:47;10.18;;;4.88;;
49784;SDS011;35679;38.732;-121.358;2023-08-17T00:59:36;9.80;;;5.13;;
49784;SDS011;35679;38.732;-121.358;2023-08-17T01:02:28;11.68;;;5.05;;
49784;SDS011;35679;38.732;-121.358;2023-08-17T01:05:17;11.98;;;5.03;;
49784;SDS011;35679;38.732;-121.358;2023-08-17T01:08:07;7.03;;;4.63;;
49784;SDS011;35679;38.732;-121.358;2023-08-17T01:11:09;9.35;;;5.07;;
49784;SDS011;35679;38.732;-121.358;2023-08-17T01:14:21;8.60;;;4.40;;
49784;SDS011;35679;38.732;-121.358;2023-08-17T01:17:17;10.30;;;4.47;;
49784;SDS011;35679;38.732;-121.358;2023-08-17T01:20:11;9.40;;;4.78;;
49784;SDS011;35679;38.732;-121.358;2023-08-17T01:23:08;7.97;;;4.45;;
49784;SDS011;35679;38.732;-121.358;2023-08-17T01:25:58;7.35;;;4.15;;
49784;SDS011;35679;38.732;-121.358;2023-08-17T01:28:48;8.43;;;4.40;;
49784;SDS011;35679;38.732;-121.358;2023-08-17T01:31:50;6.15;;;3.90;;
49784;SDS011;35679;38.732;-121.358;2023-08-17T01:34:54;6.93;;;4.15;;
49784;SDS011;35679;38.732;-121.358;2023-08-17T01:37:50;9.65;;;4.13;;
49784;SDS011;35679;38.732;-121.358;2023-08-17T01:43:32;7.25;;;4.05;;
49784;SDS011;35679;38.732;-121.358;2023-08-17T01:46:27;7.82;;;4.25;;
49784;SDS011;35679;38.732;-121.358;2023-08-17T01:49:20;8.05;;;4.38;;
49784;SDS011;35679;38.732;-121.358;2023-08-17T01:52:10;6.18;;;3.80;;
49784;SDS011;35679;38.732;-121.358;2023-08-17T01:55:01;7.05;;;3.80;;
49784;SDS011;35679;38.732;-121.358;2023-08-17T01:57:50;9.85;;;4.13;;
49784;SDS011;35679;38.732;-121.358;2023-08-17T02:00:43;4.95;;;3.50;;
49784;SDS011;35679;38.732;-121.358;2023-08-17T02:03:32;7.18;;;3.70;;
49784;SDS011;35679;38.732;-121.358;2023-08-17T02:06:22;5.93;;;4.07;;
49784;SDS011;35679;38.732;-121.358;2023-08-17T02:09:12;7.35;;;3.40;;
49784;SDS011;35679;38.732;-121.358;2023-08-17T02:12:01;6.85;;;3.78;;
49784;SDS011;35679;38.732;-121.358;2023-08-17T02:14:51;4.85;;;3.47;;
49784;SDS011;35679;38.732;-121.358;2023-08-17T02:17:41;7.97;;;3.97;;
49784;SDS011;35679;38.732;-121.358;2023-08-17T02:20:31;4.97;;;3.60;;
49784;SDS011;35679;38.732;-121.358;2023-08-17T02:23:21;3.55;;;3.22;;
49784;SDS011;35679;38.732;-121.358;2023-08-17T02:26:12;4.07;;;3.47;;
49784;SDS011;35679;38.732;-121.358;2023-08-17T02:29:01;4.25;;;3.30;;
49784;SDS011;35679;38.732;-121.358;2023-08-17T02:31:51;4.68;;;3.38;;
49784;SDS011;35679;38.732;-121.358;2023-08-17T02:34:41;5.55;;;3.40;;
49784;SDS011;35679;38.732;-121.358;2023-08-17T02:37:30;4.85;;;3.50;;
49784;SDS011;35679;38.732;-121.358;2023-08-17T02:40:20;4.97;;;3.20;;
49784;SDS011;35679;38.732;-121.358;2023-08-17T02:43:10;6.57;;;3.50;;
49784;SDS011;35679;38.732;-121.358;2023-08-17T02:45:59;5.32;;;3.50;;
49784;SDS011;35679;38.732;-121.358;2023-08-17T02:48:49;4.72;;;3.50;;
49784;SDS011;35679;38.732;-121.358;2023-08-17T02:51:39;3.70;;;3.35;;
49784;SDS011;35679;38.732;-121.358;2023-08-17T02:54:28;5.35;;;3.88;;
49784;SDS011;35679;38.732;-121.358;2023-08-17T02:57:19;5.53;;;3.25;;
49784;SDS011;35679;38.732;-121.358;2023-08-17T03:00:09;3.47;;;3.00;;
49784;SDS011;35679;38.732;-121.358;2023-08-17T03:02:59;4.78;;;3.20;;
49784;SDS011;35679;38.732;-121.358;2023-08-17T03:05:51;5.88;;;3.13;;
49784;SDS011;35679;38.732;-121.358;2023-08-17T03:08:41;5.75;;;3.05;;
49784;SDS011;35679;38.732;-121.358;2023-08-17T03:11:31;3.88;;;3.15;;
49784;SDS011;35679;38.732;-121.358;2023-08-17T03:14:21;4.80;;;2.80;;
49784;SDS011;35679;38.732;-121.358;2023-08-17T03:17:10;4.32;;;2.97;;
49784;SDS011;35679;38.732;-121.358;2023-08-17T03:19:59;4.60;;;3.17;;
49784;SDS011;35679;38.732;-121.358;2023-08-17T03:22:49;3.88;;;2.90;;
49784;SDS011;35679;38.732;-121.358;2023-08-17T03:25:42;3.47;;;3.10;;
49784;SDS011;35679;38.732;-121.358;2023-08-17T03:28:34;3.17;;;2.70;;
49784;SDS011;35679;38.732;-121.358;2023-08-17T03:31:24;5.15;;;3.00;;
49784;SDS011;35679;38.732;-121.358;2023-08-17T03:34:14;3.50;;;3.20;;
49784;SDS011;35679;38.732;-121.358;2023-08-17T03:37:04;3.75;;;3.30;;
49784;SDS011;35679;38.732;-121.358;2023-08-17T03:39:54;3.03;;;2.72;;
49784;SDS011;35679;38.732;-121.358;2023-08-17T03:42:43;3.40;;;3.00;;
49784;SDS011;35679;38.732;-121.358;2023-08-17T03:45:33;3.80;;;3.35;;
49784;SDS011;35679;38.732;-121.358;2023-08-17T03:48:24;3.47;;;3.17;;
49784;SDS011;35679;38.732;-121.358;2023-08-17T03:51:14;3.20;;;2.90;;
49784;SDS011;35679;38.732;-121.358;2023-08-17T03:54:04;3.15;;;2.92;;
49784;SDS011;35679;38.732;-121.358;2023-08-17T03:56:53;3.38;;;3.08;;
49784;SDS011;35679;38.732;-121.358;2023-08-17T03:59:43;4.38;;;3.58;;
49784;SDS011;35679;38.732;-121.358;2023-08-17T04:02:32;3.85;;;3.55;;
49784;SDS011;35679;38.732;-121.358;2023-08-17T04:05:22;3.72;;;3.42;;
49784;SDS011;35679;38.732;-121.358;2023-08-17T04:08:12;4.03;;;3.40;;
49784;SDS011;35679;38.732;-121.358;2023-08-17T04:11:01;4.38;;;3.65;;
49784;SDS011;35679;38.732;-121.358;2023-08-17T04:13:51;6.05;;;4.07;;
49784;SDS011;35679;38.732;-121.358;2023-08-17T04:16:41;3.88;;;3.63;;
49784;SDS011;35679;38.732;-121.358;2023-08-17T04:19:30;3.70;;;3.40;;
49784;SDS011;35679;38.732;-121.358;2023-08-17T04:22:20;3.95;;;3.65;;
49784;SDS011;35679;38.732;-121.358;2023-08-17T04:25:09;4.38;;;3.95;;
49784;SDS011;35679;38.732;-121.358;2023-08-17T04:27:59;4.32;;;3.65;;
49784;SDS011;35679;38.732;-121.358;2023-08-17T04:30:48;3.85;;;3.65;;
49784;SDS011;35679;38.732;-121.358;2023-08-17T04:33:39;4.80;;;3.60;;
49784;SDS011;35679;38.732;-121.358;2023-08-17T04:36:30;4.35;;;4.00;;
49784;SDS011;35679;38.732;-121.358;2023-08-17T04:39:20;3.78;;;3.47;;
49784;SDS011;35679;38.732;-121.358;2023-08-17T04:42:10;3.38;;;3.17;;
49784;SDS011;35679;38.732;-121.358;2023-08-17T04:45:03;3.60;;;3.40;;
49784;SDS011;35679;38.732;-121.358;2023-08-17T04:47:57;3.88;;;3.58;;
49784;SDS011;35679;38.732;-121.358;2023-08-17T04:50:48;3.50;;;3.22;;
49784;SDS011;35679;38.732;-121.358;2023-08-17T04:53:38;3.92;;;3.72;;
49784;SDS011;35679;38.732;-121.358;2023-08-17T04:56:28;3.85;;;3.65;;
49784;SDS011;35679;38.732;-121.358;2023-08-17T04:59:17;3.85;;;3.65;;
49784;SDS011;35679;38.732;-121.358;2023-08-17T05:02:07;3.78;;;3.42;;
49784;SDS011;35679;38.732;-121.358;2023-08-17T05:04:58;4.13;;;3.83;;
49784;SDS011;35679;38.732;-121.358;2023-08-17T05:07:48;4.65;;;4.25;;
49784;SDS011;35679;38.732;-121.358;2023-08-17T05:10:38;6.40;;;5.90;;
49784;SDS011;35679;38.732;-121.358;2023-08-17T05:13:28;6.57;;;6.13;;
49784;SDS011;35679;38.732;-121.358;2023-08-17T05:16:21;4.57;;;4.18;;
49784;SDS011;35679;38.732;-121.358;2023-08-17T05:19:11;4.30;;;4.00;;
49784;SDS011;35679;38.732;-121.358;2023-08-17T05:22:01;4.90;;;4.60;;
49784;SDS011;35679;38.732;-121.358;2023-08-17T05:24:50;4.03;;;3.72;;
49784;SDS011;35679;38.732;-121.358;2023-08-17T05:27:40;3.70;;;3.17;;
49784;SDS011;35679;38.732;-121.358;2023-08-17T05:30:30;3.38;;;3.08;;
49784;SDS011;35679;38.732;-121.358;2023-08-17T05:33:19;3.10;;;2.80;;
49784;SDS011;35679;38.732;-121.358;2023-08-17T05:36:10;3.20;;;3.00;;
49784;SDS011;35679;38.732;-121.358;2023-08-17T05:39:01;3.75;;;3.35;;
49784;SDS011;35679;38.732;-121.358;2023-08-17T05:41:52;3.28;;;3.08;;
49784;SDS011;35679;38.732;-121.358;2023-08-17T05:44:42;3.13;;;2.88;;
49784;SDS011;35679;38.732;-121.358;2023-08-17T05:47:31;3.30;;;3.00;;
49784;SDS011;35679;38.732;-121.358;2023-08-17T05:50:21;3.17;;;2.88;;
49784;SDS011;35679;38.732;-121.358;2023-08-17T05:53:10;3.38;;;3.08;;
49784;SDS011;35679;38.732;-121.358;2023-08-17T05:56:00;4.13;;;3.28;;
49784;SDS011;35679;38.732;-121.358;2023-08-17T05:58:50;3.67;;;3.47;;
49784;SDS011;35679;38.732;-121.358;2023-08-17T06:01:39;3.40;;;3.17;;
49784;SDS011;35679;38.732;-121.358;2023-08-17T06:04:29;3.45;;;3.25;;
49784;SDS011;35679;38.732;-121.358;2023-08-17T06:07:18;5.35;;;2.70;;
49784;SDS011;35679;38.732;-121.358;2023-08-17T06:10:09;3.90;;;2.83;;
49784;SDS011;35679;38.732;-121.358;2023-08-17T06:13:00;3.45;;;3.15;;
49784;SDS011;35679;38.732;-121.358;2023-08-17T06:15:49;3.03;;;2.78;;
49784;SDS011;35679;38.732;-121.358;2023-08-17T06:18:39;3.22;;;3.03;;
49784;SDS011;35679;38.732;-121.358;2023-08-17T06:21:29;3.40;;;3.10;;
49784;SDS011;35679;38.732;-121.358;2023-08-17T06:24:18;3.00;;;2.80;;
49784;SDS011;35679;38.732;-121.358;2023-08-17T06:27:07;3.22;;;2.92;;
49784;SDS011;35679;38.732;-121.358;2023-08-17T06:29:57;4.45;;;2.88;;
49784;SDS011;35679;38.732;-121.358;2023-08-17T06:32:46;3.33;;;2.70;;
49784;SDS011;35679;38.732;-121.358;2023-08-17T06:35:36;2.80;;;2.60;;
49784;SDS011;35679;38.732;-121.358;2023-08-17T06:38:25;3.10;;;2.80;;
49784;SDS011;35679;38.732;-121.358;2023-08-17T06:41:15;3.60;;;2.60;;
49784;SDS011;35679;38.732;-121.358;2023-08-17T06:44:05;3.35;;;2.80;;
49784;SDS011;35679;38.732;-121.358;2023-08-17T06:46:55;2.97;;;2.60;;
49784;SDS011;35679;38.732;-121.358;2023-08-17T06:49:44;3.10;;;2.85;;
49784;SDS011;35679;38.732;-121.358;2023-08-17T06:52:34;3.17;;;2.80;;
49784;SDS011;35679;38.732;-121.358;2023-08-17T06:55:23;3.08;;;2.88;;
49784;SDS011;35679;38.732;-121.358;2023-08-17T06:58:13;2.95;;;2.70;;
49784;SDS011;35679;38.732;-121.358;2023-08-17T07:01:02;2.80;;;2.60;;
49784;SDS011;35679;38.732;-121.358;2023-08-17T07:03:52;2.88;;;2.67;;
49784;SDS011;35679;38.732;-121.358;2023-08-17T07:06:42;3.10;;;2.80;;
49784;SDS011;35679;38.732;-121.358;2023-08-17T07:09:32;3.03;;;2.65;;
49784;SDS011;35679;38.732;-121.358;2023-08-17T07:12:21;3.08;;;2.80;;
49784;SDS011;35679;38.732;-121.358;2023-08-17T07:15:12;3.00;;;2.80;;
49784;SDS011;35679;38.732;-121.358;2023-08-17T07:18:01;3.00;;;2.80;;
49784;SDS011;35679;38.732;-121.358;2023-08-17T07:20:51;3.53;;;3.00;;
49784;SDS011;35679;38.732;-121.358;2023-08-17T07:23:44;5.45;;;2.63;;
49784;SDS011;35679;38.732;-121.358;2023-08-17T07:26:34;3.20;;;2.90;;
49784;SDS011;35679;38.732;-121.358;2023-08-17T07:29:24;3.70;;;3.40;;
49784;SDS011;35679;38.732;-121.358;2023-08-17T07:32:13;3.95;;;2.90;;
49784;SDS011;35679;38.732;-121.358;2023-08-17T07:35:03;3.95;;;3.10;;
49784;SDS011;35679;38.732;-121.358;2023-08-17T07:37:53;3.28;;;2.97;;
49784;SDS011;35679;38.732;-121.358;2023-08-17T07:40:55;3.25;;;2.85;;
49784;SDS011;35679;38.732;-121.358;2023-08-17T07:43:44;3.00;;;2.80;;
49784;SDS011;35679;38.732;-121.358;2023-08-17T07:46:34;3.10;;;2.70;;
49784;SDS011;35679;38.732;-121.358;2023-08-17T07:49:23;2.90;;;2.70;;
49784;SDS011;35679;38.732;-121.358;2023-08-17T07:52:19;3.15;;;2.90;;
49784;SDS011;35679;38.732;-121.358;2023-08-17T07:55:09;4.93;;;3.28;;
49784;SDS011;35679;38.732;-121.358;2023-08-17T07:57:59;3.20;;;2.90;;
49784;SDS011;35679;38.732;-121.358;2023-08-17T08:00:49;2.60;;;2.40;;
49784;SDS011;35679;38.732;-121.358;2023-08-17T08:03:38;3.85;;;2.60;;
49784;SDS011;35679;38.732;-121.358;2023-08-17T08:06:28;3.85;;;3.10;;
49784;SDS011;35679;38.732;-121.358;2023-08-17T08:09:17;3.00;;;2.80;;
49784;SDS011;35679;38.732;-121.358;2023-08-17T08:12:07;3.05;;;2.80;;
49784;SDS011;35679;38.732;-121.358;2023-08-17T08:14:57;2.75;;;2.55;;
49784;SDS011;35679;38.732;-121.358;2023-08-17T08:17:46;3.10;;;2.83;;
49784;SDS011;35679;38.732;-121.358;2023-08-17T08:20:36;2.83;;;2.63;;
49784;SDS011;35679;38.732;-121.358;2023-08-17T08:23:25;4.85;;;2.60;;
49784;SDS011;35679;38.732;-121.358;2023-08-17T08:26:15;3.20;;;2.65;;
49784;SDS011;35679;38.732;-121.358;2023-08-17T08:29:04;3.10;;;2.90;;
49784;SDS011;35679;38.732;-121.358;2023-08-17T08:31:53;3.00;;;2.80;;
49784;SDS011;35679;38.732;-121.358;2023-08-17T08:34:43;3.58;;;2.70;;
49784;SDS011;35679;38.732;-121.358;2023-08-17T08:37:32;3.38;;;3.08;;
49784;SDS011;35679;38.732;-121.358;2023-08-17T08:40:26;2.67;;;2.47;;
49784;SDS011;35679;38.732;-121.358;2023-08-17T08:43:17;3.30;;;2.88;;
49784;SDS011;35679;38.732;-121.358;2023-08-17T08:46:07;3.17;;;2.90;;
49784;SDS011;35679;38.732;-121.358;2023-08-17T08:48:57;3.20;;;2.90;;
49784;SDS011;35679;38.732;-121.358;2023-08-17T08:51:48;3.70;;;3.00;;
49784;SDS011;35679;38.732;-121.358;2023-08-17T08:54:40;2.90;;;2.70;;
49784;SDS011;35679;38.732;-121.358;2023-08-17T08:57:31;4.47;;;3.00;;
49784;SDS011;35679;38.732;-121.358;2023-08-17T09:00:22;3.22;;;2.95;;
49784;SDS011;35679;38.732;-121.358;2023-08-17T09:03:14;3.70;;;3.28;;
49784;SDS011;35679;38.732;-121.358;2023-08-17T09:06:09;4.43;;;3.17;;
49784;SDS011;35679;38.732;-121.358;2023-08-17T09:09:00;4.60;;;3.53;;
49784;SDS011;35679;38.732;-121.358;2023-08-17T09:11:51;3.58;;;2.90;;
49784;SDS011;35679;38.732;-121.358;2023-08-17T09:14:40;3.33;;;3.00;;
49784;SDS011;35679;38.732;-121.358;2023-08-17T09:17:31;5.63;;;3.22;;
49784;SDS011;35679;38.732;-121.358;2023-08-17T09:23:38;3.17;;;2.88;;
49784;SDS011;35679;38.732;-121.358;2023-08-17T09:26:31;3.90;;;3.22;;
49784;SDS011;35679;38.732;-121.358;2023-08-17T09:29:25;3.40;;;3.10;;
49784;SDS011;35679;38.732;-121.358;2023-08-17T09:32:14;3.53;;;3.22;;
49784;SDS011;35679;38.732;-121.358;2023-08-17T09:35:05;4.97;;;2.95;;
49784;SDS011;35679;38.732;-121.358;2023-08-17T09:37:55;3.97;;;2.83;;
49784;SDS011;35679;38.732;-121.358;2023-08-17T09:40:45;3.17;;;2.88;;
49784;SDS011;35679;38.732;-121.358;2023-08-17T09:43:35;4.05;;;2.92;;
49784;SDS011;35679;38.732;-121.358;2023-08-17T09:46:25;4.03;;;3.17;;
49784;SDS011;35679;38.732;-121.358;2023-08-17T09:49:17;4.88;;;3.08;;
49784;SDS011;35679;38.732;-121.358;2023-08-17T09:52:10;3.35;;;2.92;;
49784;SDS011;35679;38.732;-121.358;2023-08-17T09:55:00;3.42;;;3.08;;
49784;SDS011;35679;38.732;-121.358;2023-08-17T09:57:55;4.35;;;3.50;;
49784;SDS011;35679;38.732;-121.358;2023-08-17T10:00:47;5.72;;;3.55;;
49784;SDS011;35679;38.732;-121.358;2023-08-17T10:03:39;5.35;;;3.22;;
49784;SDS011;35679;38.732;-121.358;2023-08-17T10:06:32;4.88;;;3.50;;
49784;SDS011;35679;38.732;-121.358;2023-08-17T10:09:24;7.70;;;3.63;;
49784;SDS011;35679;38.732;-121.358;2023-08-17T10:12:17;3.92;;;3.50;;
49784;SDS011;35679;38.732;-121.358;2023-08-17T10:15:08;4.65;;;3.40;;
49784;SDS011;35679;38.732;-121.358;2023-08-17T10:18:09;7.90;;;3.35;;
49784;SDS011;35679;38.732;-121.358;2023-08-17T10:21:02;4.18;;;3.40;;
49784;SDS011;35679;38.732;-121.358;2023-08-17T10:23:56;4.05;;;2.97;;
49784;SDS011;35679;38.732;-121.358;2023-08-17T10:26:45;4.25;;;3.30;;
49784;SDS011;35679;38.732;-121.358;2023-08-17T10:29:40;3.95;;;3.22;;
49784;SDS011;35679;38.732;-121.358;2023-08-17T10:32:32;4.10;;;2.95;;
49784;SDS011;35679;38.732;-121.358;2023-08-17T10:35:21;5.45;;;3.72;;
49784;SDS011;35679;38.732;-121.358;2023-08-17T10:38:11;3.60;;;3.17;;
49784;SDS011;35679;38.732;-121.358;2023-08-17T10:41:45;3.83;;;3.42;;
49784;SDS011;35679;38.732;-121.358;2023-08-17T10:44:37;4.72;;;3.33;;
49784;SDS011;35679;38.732;-121.358;2023-08-17T10:47:33;5.63;;;3.58;;
49784;SDS011;35679;38.732;-121.358;2023-08-17T10:50:24;4.63;;;3.70;;
49784;SDS011;35679;38.732;-121.358;2023-08-17T10:53:13;3.22;;;2.90;;
49784;SDS011;35679;38.732;-121.358;2023-08-17T10:56:06;6.30;;;3.35;;
49784;SDS011;35679;38.732;-121.358;2023-08-17T10:59:01;3.67;;;3.30;;
49784;SDS011;35679;38.732;-121.358;2023-08-17T11:01:51;3.35;;;2.83;;
49784;SDS011;35679;38.732;-121.358;2023-08-17T11:04:41;3.92;;;3.17;;
49784;SDS011;35679;38.732;-121.358;2023-08-17T11:07:41;4.90;;;3.40;;
49784;SDS011;35679;38.732;-121.358;2023-08-17T11:10:32;3.60;;;3.30;;
49784;SDS011;35679;38.732;-121.358;2023-08-17T11:13:22;3.38;;;3.08;;
49784;SDS011;35679;38.732;-121.358;2023-08-17T11:16:12;6.90;;;3.40;;
49784;SDS011;35679;38.732;-121.358;2023-08-17T11:19:05;3.90;;;3.58;;
49784;SDS011;35679;38.732;-121.358;2023-08-17T11:22:00;5.65;;;3.38;;
49784;SDS011;35679;38.732;-121.358;2023-08-17T11:24:50;4.78;;;3.28;;
49784;SDS011;35679;38.732;-121.358;2023-08-17T11:27:40;5.30;;;3.30;;
49784;SDS011;35679;38.732;-121.358;2023-08-17T11:30:30;3.47;;;3.17;;
49784;SDS011;35679;38.732;-121.358;2023-08-17T11:33:22;5.85;;;3.40;;
49784;SDS011;35679;38.732;-121.358;2023-08-17T11:36:12;3.55;;;3.25;;
49784;SDS011;35679;38.732;-121.358;2023-08-17T11:39:01;6.20;;;3.25;;
49784;SDS011;35679;38.732;-121.358;2023-08-17T11:41:57;4.45;;;3.35;;
49784;SDS011;35679;38.732;-121.358;2023-08-17T11:44:47;3.65;;;3.30;;
49784;SDS011;35679;38.732;-121.358;2023-08-17T11:47:38;5.45;;;3.83;;
49784;SDS011;35679;38.732;-121.358;2023-08-17T11:50:28;4.63;;;3.55;;
49784;SDS011;35679;38.732;-121.358;2023-08-17T11:53:18;3.95;;;3.60;;
49784;SDS011;35679;38.732;-121.358;2023-08-17T11:56:08;8.07;;;3.50;;
49784;SDS011;35679;38.732;-121.358;2023-08-17T11:58:58;4.72;;;3.35;;
49784;SDS011;35679;38.732;-121.358;2023-08-17T12:01:48;3.55;;;3.25;;
49784;SDS011;35679;38.732;-121.358;2023-08-17T12:04:38;3.80;;;3.50;;
49784;SDS011;35679;38.732;-121.358;2023-08-17T12:07:28;3.72;;;3.40;;
49784;SDS011;35679;38.732;-121.358;2023-08-17T12:10:18;4.88;;;3.47;;
49784;SDS011;35679;38.732;-121.358;2023-08-17T12:13:11;5.28;;;3.13;;
49784;SDS011;35679;38.732;-121.358;2023-08-17T12:16:02;3.60;;;3.30;;
49784;SDS011;35679;38.732;-121.358;2023-08-17T12:18:52;3.85;;;3.50;;
49784;SDS011;35679;38.732;-121.358;2023-08-17T12:21:42;4.13;;;2.90;;
49784;SDS011;35679;38.732;-121.358;2023-08-17T12:24:32;3.90;;;3.50;;
49784;SDS011;35679;38.732;-121.358;2023-08-17T12:27:23;4.97;;;3.15;;
49784;SDS011;35679;38.732;-121.358;2023-08-17T12:30:14;3.78;;;;;
49784;SDS011;35679;38.732;-121.358;2023-08-17T12:33:14;4.45;;;3.33;;
49784;SDS011;35679;38.732;-121.358;2023-08-17T12:36:03;5.53;;;3.17;;
49784;SDS011;35679;38.732;-121.358;2023-08-17T12:38:55;7.00;;;3.38;;
49784;SDS011;35679;38.732;-121.358;2023-08-17T12:41:44;3.97;;;3.38;;
49784;SDS011;35679;38.732;-121.358;2023-08-17T12:44:34;3.53;;;3.22;;
49784;SDS011;35679;38.732;-121.358;2023-08-17T12:47:23;5.18;;;3.40;;
49784;SDS011;35679;38.732;-121.358;2023-08-17T12:50:13;6.15;;;3.15;;
49784;SDS011;35679;38.732;-121.358;2023-08-17T12:53:03;3.97;;;3.58;;
49784;SDS011;35679;38.732;-121.358;2023-08-17T12:55:52;4.50;;;3.35;;
49784;SDS011;35679;38.732;-121.358;2023-08-17T12:58:42;5.47;;;3.65;;
49784;SDS011;35679;38.732;-121.358;2023-08-17T13:01:33;4.45;;;3.40;;
49784;SDS011;35679;38.732;-121.358;2023-08-17T13:04:22;5.28;;;3.25;;
49784;SDS011;35679;38.732;-121.358;2023-08-17T13:07:11;4.47;;;3.70;;
49784;SDS011;35679;38.732;-121.358;2023-08-17T13:10:01;3.83;;;3.38;;
49784;SDS011;35679;38.732;-121.358;2023-08-17T13:12:50;3.97;;;3.53;;
49784;SDS011;35679;38.732;-121.358;2023-08-17T13:15:43;3.90;;;3.50;;
49784;SDS011;35679;38.732;-121.358;2023-08-17T13:18:33;4.22;;;3.50;;
49784;SDS011;35679;38.732;-121.358;2023-08-17T13:21:22;4.35;;;3.60;;
49784;SDS011;35679;38.732;-121.358;2023-08-17T13:24:12;4.78;;;3.47;;
49784;SDS011;35679;38.732;-121.358;2023-08-17T13:27:02;4.80;;;3.67;;
49784;SDS011;35679;38.732;-121.358;2023-08-17T13:29:52;4.63;;;3.30;;
49784;SDS011;35679;38.732;-121.358;2023-08-17T13:32:41;3.47;;;3.17;;
49784;SDS011;35679;38.732;-121.358;2023-08-17T13:35:33;4.80;;;3.50;;
49784;SDS011;35679;38.732;-121.358;2023-08-17T13:38:22;4.90;;;3.35;;
49784;SDS011;35679;38.732;-121.358;2023-08-17T13:41:12;4.57;;;3.42;;
49784;SDS011;35679;38.732;-121.358;2023-08-17T13:44:02;4.00;;;3.50;;
49784;SDS011;35679;38.732;-121.358;2023-08-17T13:46:51;3.78;;;3.47;;
49784;SDS011;35679;38.732;-121.358;2023-08-17T13:49:41;4.30;;;3.33;;
49784;SDS011;35679;38.732;-121.358;2023-08-17T13:52:30;3.70;;;3.33;;
49784;SDS011;35679;38.732;-121.358;2023-08-17T13:55:19;3.47;;;3.13;;
49784;SDS011;35679;38.732;-121.358;2023-08-17T13:58:09;3.40;;;2.85;;
49784;SDS011;35679;38.732;-121.358;2023-08-17T14:00:59;8.93;;;3.40;;
49784;SDS011;35679;38.732;-121.358;2023-08-17T14:03:49;3.38;;;3.08;;
49784;SDS011;35679;38.732;-121.358;2023-08-17T14:06:39;5.68;;;3.20;;
49784;SDS011;35679;38.732;-121.358;2023-08-17T14:09:29;3.47;;;3.15;;
49784;SDS011;35679;38.732;-121.358;2023-08-17T14:12:19;3.83;;;3.28;;
49784;SDS011;35679;38.732;-121.358;2023-08-17T14:15:08;7.65;;;3.35;;
49784;SDS011;35679;38.732;-121.358;2023-08-17T14:17:58;6.10;;;3.10;;
49784;SDS011;35679;38.732;-121.358;2023-08-17T14:20:48;3.40;;;2.97;;
49784;SDS011;35679;38.732;-121.358;2023-08-17T14:23:38;6.40;;;3.35;;
49784;SDS011;35679;38.732;-121.358;2023-08-17T14:26:27;4.68;;;3.10;;
49784;SDS011;35679;38.732;-121.358;2023-08-17T14:29:19;7.50;;;3.88;;
49784;SDS011;35679;38.732;-121.358;2023-08-17T14:32:08;5.38;;;3.50;;
49784;SDS011;35679;38.732;-121.358;2023-08-17T14:34:58;7.15;;;3.50;;
49784;SDS011;35679;38.732;-121.358;2023-08-17T14:37:47;6.35;;;3.60;;
49784;SDS011;35679;38.732;-121.358;2023-08-17T14:40:36;5.38;;;4.00;;
49784;SDS011;35679;38.732;-121.358;2023-08-17T14:43:29;7.22;;;3.60;;
49784;SDS011;35679;38.732;-121.358;2023-08-17T14:46:19;5.72;;;3.70;;
49784;SDS011;35679;38.732;-121.358;2023-08-17T14:49:09;4.45;;;3.60;;
49784;SDS011;35679;38.732;-121.358;2023-08-17T14:51:58;4.43;;;3.70;;
49784;SDS011;35679;38.732;-121.358;2023-08-17T14:54:48;8.32;;;3.58;;
49784;SDS011;35679;38.732;-121.358;2023-08-17T14:57:37;3.95;;;3.30;;
49784;SDS011;35679;38.732;-121.358;2023-08-17T15:00:26;6.72;;;3.53;;
49784;SDS011;35679;38.732;-121.358;2023-08-17T15:03:19;4.70;;;3.63;;
49784;SDS011;35679;38.732;-121.358;2023-08-17T15:06:11;5.15;;;3.72;;
49784;SDS011;35679;38.732;-121.358;2023-08-17T15:09:19;5.30;;;3.20;;
49784;SDS011;35679;38.732;-121.358;2023-08-17T15:12:09;5.47;;;3.83;;
49784;SDS011;35679;38.732;-121.358;2023-08-17T15:14:58;7.38;;;3.72;;
49784;SDS011;35679;38.732;-121.358;2023-08-17T15:17:48;5.28;;;3.63;;
49784;SDS011;35679;38.732;-121.358;2023-08-17T15:20:37;3.88;;;3.30;;
49784;SDS011;35679;38.732;-121.358;2023-08-17T15:23:27;4.00;;;3.58;;
49784;SDS011;35679;38.732;-121.358;2023-08-17T15:26:16;4.97;;;3.92;;
49784;SDS011;35679;38.732;-121.358;2023-08-17T15:29:08;4.32;;;3.90;;
49784;SDS011;35679;38.732;-121.358;2023-08-17T15:31:58;3.55;;;3.20;;
49784;SDS011;35679;38.732;-121.358;2023-08-17T15:34:47;4.25;;;3.85;;
49784;SDS011;35679;38.732;-121.358;2023-08-17T15:37:38;4.72;;;3.60;;
49784;SDS011;35679;38.732;-121.358;2023-08-17T15:40:28;3.80;;;3.50;;
49784;SDS011;35679;38.732;-121.358;2023-08-17T15:43:18;5.20;;;3.50;;
49784;SDS011;35679;38.732;-121.358;2023-08-17T15:46:07;4.30;;;3.60;;
49784;SDS011;35679;38.732;-121.358;2023-08-17T15:48:56;4.05;;;3.50;;
49784;SDS011;35679;38.732;-121.358;2023-08-17T15:51:46;6.03;;;3.60;;
49784;SDS011;35679;38.732;-121.358;2023-08-17T15:54:36;6.18;;;3.85;;
49784;SDS011;35679;38.732;-121.358;2023-08-17T15:57:26;3.95;;;3.25;;
49784;SDS011;35679;38.732;-121.358;2023-08-17T16:00:15;4.20;;;3.65;;
49784;SDS011;35679;38.732;-121.358;2023-08-17T16:03:05;5.00;;;3.72;;
49784;SDS011;35679;38.732;-121.358;2023-08-17T16:05:59;3.95;;;3.35;;
49784;SDS011;35679;38.732;-121.358;2023-08-17T16:08:48;5.22;;;3.60;;
49784;SDS011;35679;38.732;-121.358;2023-08-17T16:11:40;4.47;;;3.63;;
49784;SDS011;35679;38.732;-121.358;2023-08-17T16:14:29;5.88;;;3.95;;
49784;SDS011;35679;38.732;-121.358;2023-08-17T16:17:18;5.18;;;3.58;;
49784;SDS011;35679;38.732;-121.358;2023-08-17T16:20:08;4.47;;;3.83;;
49784;SDS011;35679;38.732;-121.358;2023-08-17T16:22:58;5.45;;;3.97;;
49784;SDS011;35679;38.732;-121.358;2023-08-17T16:25:48;4.70;;;3.78;;
49784;SDS011;35679;38.732;-121.358;2023-08-17T16:28:38;5.90;;;3.80;;